Rangoon, Myanmar

8:25 PM MMT on December 11, 2016 (GMT +0630)
Golden Valley | | Change Station

Elev 105 ft 16.82 °N, 96.14 °E | Updated 5 seconds ago

Clear
Clear
78.8 °F
Feels Like 81 °F
N
0.0
Wind Variable Wind from South
Gusts 0.0 mph

Today
High -- | Low -- °F
--% Chance of Precip.
Yesterday
High -- | Low -- °F
Precip. -- in
Pressure 29.83 in
Visibility 4.3 miles
Clouds
Heat Index 81 °F
Dew Point 65 °F
Humidity 63%
Rainfall 0.00 in
Snow Depth Not available.
6:24 AM 5:33 PM
Waxing Gibbous, 91% visible
METAR VYYY 111330Z 18005KT 7000 NSC 27/22 Q1010
Pressure 29.83 in
Visibility 4.3 miles
Clouds
Heat Index 81 °F
Dew Point 65 °F
Humidity 63%
Rainfall 0.00 in
Snow Depth Not available.
6:24 AM 5:33 PM
Waxing Gibbous, 91% visible
METAR VYYY 111330Z 18005KT 7000 NSC 27/22 Q1010

10-Day Weather Forecast

No radar image for this location.
×

Almanac

Astronomy

Dec. 11, 2016 Rise Set
Actual Time
Civil Twilight
Nautical Twilight
Astronomical Twilight
Moon
Length of Visible Light
Length of Day
Tomorrow will be .
, % of the Moon is Illuminated

Today's Extremes

Country Highs Country Lows

Community

WunderPhotos

Upload Photos

1,956,708 photos uploaded!

WunderBlog® & News

Nearby

Air Quality

  Air Quality AQ Index Pollutant
Not available.

Snow Depth

Station Depth Elevation

Earthquake Activity

City Distance Mag. Time & Date
Minimum magnitude displayed is 2.5.

Coastal Water Temperatures

Place Temperature

Stations

Nearby Weather Stations

Station Location Temp. Windchill Dew Point Humidity Wind Precip. Elev Updated Type